fbpx

Weather

Glasgow International Airport – EGPF

METAR:

EGPF 210050Z AUTO 24005KT 9999 NCD M01/M02 Q0972


TAF:

TAF AMD EGPF 201747Z 2018/2118 28003KT 9999 SCT006 BKN016 TEMPO 2018/2107 6000 -RASN BKN010 PROB40 TEMPO 2118/2107 2000 SN BKN006 PROB40 TEMPO 2107/2118 3000 SHRASN BKN012 BECMG 2112/2115 28013KT PROB30 TEMPO 2115/2118 28017G27KT


Prestwick International Airport – EGPK

METAR:

EGPK 210050Z 32007KT 9999 FEW017 01/00 Q0972


TAF:

TAF AMD TAF AMD EGPK 202103Z 2021/2118 VRB03KT 9999 SCT018 TEMPO 2021/2107 6000 RA BKN012 PROB40 TEMPO 2021/2107 3000 RASN BKN008 BECMG 2101/2104 28012KT PROB40 TEMPO 2107/2118 29015G25KT 4000 SHRASN BKN012

Call Now ButtonCall us now